Time;durP1;ratioP1;P1;durP2;ratioP2;P2;SDS_P1;SDS_P2;PMS_P1;PMS_P2;Temp;Humidity;BMP_temperature;BMP_pressure;BME280_temperature;BME280_humidity;BME280_pressure;Samples;Min_cycle;Max_cycle;Signal;HPM_P1;HPM_P2
2022/08/28 00:01:06;;;;;;;;;11.00;10.00;;;;;21.16;50.27;101128.75;5092971;28;45061;-81
2022/08/28 00:03:31;;;;;;;;;12.00;12.00;;;;;21.15;50.80;101126.09;5093035;28;45484;-82
2022/08/28 00:05:58;;;;;;;;;12.00;11.00;;;;;21.06;50.78;101122.53;5091592;27;44874;-82
2022/08/28 00:08:24;;;;;;;;;13.50;13.00;;;;;20.99;51.51;101125.25;5091844;28;44979;-82
2022/08/28 00:10:50;;;;;;;;;13.25;13.25;;;;;20.47;51.54;101056.72;5088686;28;44959;-82
2022/08/28 00:13:19;;;;;;;;;12.25;12.00;;;;;20.73;51.84;101111.91;5092273;28;45698;-82
2022/08/28 00:15:47;;;;;;;;;13.75;13.75;;;;;20.74;51.98;101125.28;5092467;28;45157;-82
2022/08/28 00:18:13;;;;;;;;;14.25;13.00;;;;;20.43;52.47;101073.59;5092820;28;44921;-82
2022/08/28 00:20:39;;;;;;;;;13.75;13.75;;;;;20.68;52.07;101127.03;5092092;28;45240;-82
2022/08/28 00:23:05;;;;;;;;;13.50;12.25;;;;;20.67;52.25;101123.47;5092244;28;46829;-82
2022/08/28 00:25:33;;;;;;;;;10.50;10.00;;;;;20.62;52.48;101114.59;5089946;28;45414;-81
2022/08/28 00:28:02;;;;;;;;;10.75;10.75;;;;;20.57;52.59;101127.06;5092619;28;45116;-81
2022/08/28 00:30:31;;;;;;;;;13.75;12.75;;;;;20.53;52.79;101122.59;5090491;28;45142;-82
2022/08/28 00:33:00;;;;;;;;;14.00;14.00;;;;;20.46;53.02;101121.69;5092567;28;45704;-82
2022/08/28 00:35:26;;;;;;;;;13.25;11.75;;;;;20.44;53.39;101127.91;5092883;28;45491;-83
2022/08/28 00:37:53;;;;;;;;;14.75;14.50;;;;;20.27;52.80;101112.78;5092598;28;45022;-82
2022/08/28 00:40:21;;;;;;;;;12.25;12.25;;;;;20.31;53.65;101121.69;5089987;28;45032;-81
2022/08/28 00:42:47;;;;;;;;;14.25;13.75;;;;;20.20;53.44;101107.44;5092175;28;45688;-82
2022/08/28 00:45:15;;;;;;;;;12.50;12.00;;;;;20.29;53.44;101132.34;5091400;28;45549;-82
2022/08/28 00:47:41;;;;;;;;;12.75;12.75;;;;;20.27;53.84;101131.47;5092323;28;45105;-82
2022/08/28 00:50:10;;;;;;;;;12.75;12.50;;;;;20.25;54.19;101127.03;5091659;28;45020;-82
2022/08/28 00:52:36;;;;;;;;;12.00;12.00;;;;;20.20;54.26;101127.00;5090800;28;47464;-82
2022/08/28 00:55:13;;;;;;;;;13.00;12.25;;;;;20.14;54.34;101121.63;5091538;28;45555;-83
2022/08/28 00:57:43;;;;;;;;;12.25;11.25;;;;;20.18;54.18;101130.56;5091216;28;45178;-82
2022/08/28 01:00:12;;;;;;;;;12.25;12.25;;;;;20.08;54.33;101122.53;5092104;28;44943;-83
2022/08/28 01:02:38;;;;;;;;;12.75;9.25;;;;;20.12;54.77;101136.78;5090635;28;45702;-82
2022/08/28 01:05:08;;;;;;;;;12.25;11.50;;;;;20.00;54.34;101112.72;5092310;28;45024;-82
2022/08/28 01:07:34;;;;;;;;;10.75;10.25;;;;;20.06;54.69;101134.09;5091166;28;45079;-83
2022/08/28 01:09:59;;;;;;;;;13.50;13.25;;;;;19.81;54.63;101083.38;5090520;28;45190;-83
2022/08/28 01:12:30;;;;;;;;;11.25;11.25;;;;;19.99;54.72;101133.19;5090604;28;45936;-84
2022/08/28 01:15:00;;;;;;;;;10.00;10.00;;;;;20.00;55.21;101134.06;5091667;28;45110;-82
2022/08/28 01:17:33;;;;;;;;;11.00;11.00;;;;;19.97;55.08;101137.63;5091331;28;45129;-82
2022/08/28 01:20:05;;;;;;;;;11.75;11.00;;;;;19.98;55.00;101135.84;5091609;28;44843;-82
2022/08/28 01:22:38;;;;;;;;;10.25;10.25;;;;;19.91;54.73;101113.63;5087801;28;45267;-83
2022/08/28 01:25:12;;;;;;;;;8.75;8.50;;;;;20.01;54.49;101126.09;5091782;28;45634;-82
2022/08/28 01:27:40;;;;;;;;;10.25;10.00;;;;;19.97;54.89;101110.06;5087236;28;45363;-83
2022/08/28 01:30:10;;;;;;;;;7.50;7.50;;;;;19.97;54.80;101110.94;5090637;28;44990;-83
2022/08/28 01:32:40;;;;;;;;;8.75;8.00;;;;;20.07;54.25;101115.41;5091545;28;47079;-83
2022/08/28 01:35:09;;;;;;;;;9.50;8.25;;;;;20.04;54.45;101101.16;5090173;28;45173;-83
2022/08/28 01:37:35;;;;;;;;;7.75;7.75;;;;;20.17;54.26;101112.78;5091226;28;44942;-83
2022/08/28 01:40:03;;;;;;;;;9.25;8.75;;;;;20.19;54.07;101114.53;5090770;28;45008;-84
2022/08/28 01:42:28;;;;;;;;;7.00;6.50;;;;;20.25;54.07;101116.34;5089662;28;46463;-82
2022/08/28 01:44:53;;;;;;;;;8.50;7.75;;;;;20.17;54.24;101094.97;5091186;28;45037;-82
2022/08/28 01:47:20;;;;;;;;;9.25;9.00;;;;;20.29;53.91;101112.75;5087038;28;44920;-82
2022/08/28 01:49:45;;;;;;;;;8.00;8.00;;;;;20.32;53.90;101105.66;5091536;28;45019;-83
2022/08/28 01:52:11;;;;;;;;;8.00;7.75;;;;;20.37;53.78;101105.66;5087446;28;45362;-82
2022/08/28 01:54:36;;;;;;;;;6.25;6.25;;;;;20.36;53.53;101094.09;5091547;28;44997;-83
2022/08/28 01:57:02;;;;;;;;;7.00;7.00;;;;;20.31;53.47;101081.63;5090497;28;45107;-82
2022/08/28 01:59:27;;;;;;;;;8.00;8.00;;;;;20.39;53.55;101095.84;5090467;28;45139;-82
2022/08/28 02:01:54;;;;;;;;;7.00;6.33;;;;;20.39;53.90;101103.88;5089417;28;56284;-84
2022/08/28 02:04:19;;;;;;;;;7.75;7.75;;;;;20.41;53.51;101110.13;5091139;28;45100;-83
2022/08/28 02:06:45;;;;;;;;;7.00;6.75;;;;;20.43;53.76;101105.66;5090569;28;45037;-82
2022/08/28 02:09:10;;;;;;;;;8.00;8.00;;;;;20.42;53.42;101105.66;5072532;28;44945;-82
2022/08/28 02:11:37;;;;;;;;;6.50;6.00;;;;;20.44;53.68;101106.53;5090037;28;45323;-82
2022/08/28 02:14:02;;;;;;;;;8.00;7.00;;;;;20.49;53.55;101112.81;5091642;28;45132;-81
2022/08/28 02:16:28;;;;;;;;;7.25;7.00;;;;;20.50;53.27;101106.59;5089676;28;45214;-82
2022/08/28 02:18:53;;;;;;;;;6.75;6.75;;;;;20.50;53.57;101106.59;5089528;28;44985;-82
2022/08/28 02:21:19;;;;;;;;;7.00;6.50;;;;;20.45;53.45;101109.22;5089898;28;47587;-81
2022/08/28 02:23:45;;;;;;;;;8.00;8.00;;;;;20.42;53.30;101095.88;5090619;28;45103;-81
2022/08/28 02:26:12;;;;;;;;;7.00;6.00;;;;;20.51;53.49;101103.03;5087750;28;45337;-82
2022/08/28 02:28:39;;;;;;;;;7.75;7.50;;;;;20.39;53.06;101094.97;5091661;27;44909;-82
2022/08/28 02:31:08;;;;;;;;;5.25;5.25;;;;;20.46;53.33;101110.13;5092295;28;45366;-82
2022/08/28 02:33:36;;;;;;;;;7.25;7.00;;;;;20.48;53.49;101111.91;5094300;28;44998;-82
2022/08/28 02:36:02;;;;;;;;;7.50;6.50;;;;;20.38;53.50;101099.41;5075650;28;44925;-82
2022/08/28 02:38:28;;;;;;;;;6.75;6.00;;;;;20.46;53.76;101110.13;5092749;28;45445;-82
2022/08/28 02:40:53;;;;;;;;;5.50;5.00;;;;;20.27;53.96;101091.41;5092634;28;45538;-81
2022/08/28 02:43:18;;;;;;;;;7.50;7.00;;;;;20.31;54.07;101114.56;5092892;28;45311;-81
2022/08/28 02:45:44;;;;;;;;;7.00;7.00;;;;;20.16;54.11;101095.88;5093395;28;51524;-82
2022/08/28 02:48:09;;;;;;;;;6.00;6.00;;;;;20.17;54.27;101100.31;5094598;28;44971;-82
2022/08/28 02:50:34;;;;;;;;;8.75;7.00;;;;;20.14;54.36;101105.63;5092877;28;46240;-82
2022/08/28 02:53:00;;;;;;;;;7.75;7.75;;;;;20.08;54.52;101090.50;5094292;28;45103;-82
2022/08/28 02:55:26;;;;;;;;;8.00;8.00;;;;;20.13;54.46;101105.63;5071204;28;45258;-82
2022/08/28 02:57:53;;;;;;;;;6.00;5.00;;;;;20.09;54.66;101110.06;5092606;28;45319;-82
2022/08/28 03:00:22;;;;;;;;;6.25;6.00;;;;;20.03;54.60;101102.94;5093458;28;45894;-82
2022/08/28 03:02:48;;;;;;;;;6.25;6.00;;;;;19.94;55.04;101092.25;5091829;28;45230;-82
2022/08/28 03:05:16;;;;;;;;;6.00;6.00;;;;;19.99;54.68;101105.63;5093457;28;44965;-81
2022/08/28 03:07:42;;;;;;;;;6.50;6.50;;;;;19.86;55.02;101072.69;5092722;28;45145;-81
2022/08/28 03:10:08;;;;;;;;;7.00;6.00;;;;;19.96;55.34;101094.97;5093234;28;45691;-81
2022/08/28 03:12:34;;;;;;;;;7.00;7.00;;;;;19.89;55.27;101095.81;5092401;28;45421;-81
2022/08/28 03:15:00;;;;;;;;;7.00;7.00;;;;;19.79;55.48;101090.44;5094263;28;45012;-82
2022/08/28 03:17:25;;;;;;;;;6.25;6.25;;;;;19.82;55.59;101095.81;5094385;28;45028;-82
2022/08/28 03:19:51;;;;;;;;;8.00;7.25;;;;;19.81;55.87;101091.38;5093325;28;45245;-81
2022/08/28 03:25:08;;;;;;;;;7.75;7.25;;;;;19.87;55.77;101095.81;5082232;28;45038;-82
2022/08/28 03:27:33;;;;;;;;;9.00;8.00;;;;;19.80;55.66;101094.00;5091546;28;45500;-81
2022/08/28 03:29:58;;;;;;;;;7.50;7.00;;;;;19.87;56.04;101111.81;5093904;28;46214;-82
2022/08/28 03:32:25;;;;;;;;;8.25;6.25;;;;;19.76;56.08;101087.78;5093862;28;44988;-81
2022/08/28 03:34:52;;;;;;;;;6.00;6.00;;;;;19.71;55.92;101078.91;5092148;28;45309;-81
2022/08/28 03:37:18;;;;;;;;;8.25;7.00;;;;;19.83;55.96;101104.69;5093968;28;45363;-81
2022/08/28 03:39:43;;;;;;;;;7.50;7.00;;;;;19.81;56.06;101099.38;5092545;28;45166;-82
2022/08/28 03:42:08;;;;;;;;;7.00;7.00;;;;;19.81;56.10;101101.16;5090250;28;59925;-81
2022/08/28 03:44:36;;;;;;;;;9.00;8.67;;;;;19.81;55.94;101095.81;5092103;28;46498;-81
2022/08/28 03:47:03;;;;;;;;;8.75;8.00;;;;;19.82;55.79;101087.81;5089388;28;45323;-81
2022/08/28 03:49:28;;;;;;;;;7.75;7.00;;;;;19.84;56.33;101098.47;5092748;28;45174;-81
2022/08/28 03:51:53;;;;;;;;;8.00;7.00;;;;;19.76;55.86;101085.13;5091211;28;65747;-81
2022/08/28 03:54:19;;;;;;;;;7.50;7.50;;;;;19.73;56.21;101086.88;5092262;28;44957;-81
2022/08/28 03:56:44;;;;;;;;;8.50;8.00;;;;;19.71;56.23;101072.69;5073812;28;45052;-81
2022/08/28 03:59:09;;;;;;;;;5.50;5.50;;;;;19.85;56.09;101100.25;5090389;28;45581;-82
2022/08/28 04:01:36;;;;;;;;;7.67;6.00;;;;;19.87;56.09;101101.16;5093035;28;52043;-81
2022/08/28 04:04:03;;;;;;;;;7.00;7.00;;;;;19.88;56.29;101097.59;5092689;28;44982;-82
2022/08/28 04:06:29;;;;;;;;;7.00;6.50;;;;;19.71;56.00;101072.69;5091650;28;45614;-82
2022/08/28 04:08:54;;;;;;;;;7.75;7.75;;;;;19.80;56.12;101092.25;5092746;28;45024;-81
2022/08/28 04:11:20;;;;;;;;;7.00;7.00;;;;;19.92;56.11;101111.84;5090781;28;45352;-81
2022/08/28 04:13:45;;;;;;;;;8.50;8.50;;;;;19.91;55.96;101108.28;5093394;28;45155;-81
2022/08/28 04:16:15;;;;;;;;;5.00;5.00;;;;;19.84;56.66;101101.13;5074682;28;45225;-81
2022/08/28 04:18:41;;;;;;;;;7.75;7.00;;;;;19.89;56.42;101109.16;5091151;28;45732;-81
2022/08/28 04:21:15;;;;;;;;;7.00;7.00;;;;;19.89;56.40;101111.81;5092830;28;45490;-81
2022/08/28 04:23:42;;;;;;;;;5.00;5.00;;;;;19.88;56.53;101102.03;5092575;28;45068;-81
2022/08/28 04:26:09;;;;;;;;;7.25;6.75;;;;;19.90;56.65;101105.59;5090193;28;45263;-82
2022/08/28 04:28:35;;;;;;;;;7.25;7.25;;;;;19.81;56.35;101095.81;5091105;28;44993;-81
2022/08/28 04:31:01;;;;;;;;;5.50;5.25;;;;;19.86;56.85;101102.03;5089373;28;45280;-82
2022/08/28 04:33:28;;;;;;;;;7.75;7.00;;;;;19.87;56.46;101110.94;5091210;28;45211;-81
2022/08/28 04:35:54;;;;;;;;;9.25;8.00;;;;;19.87;56.52;101105.59;5089796;28;45386;-82
2022/08/28 04:38:20;;;;;;;;;6.00;6.00;;;;;19.86;56.52;101104.72;5089576;28;45426;-82
2022/08/28 04:40:46;;;;;;;;;5.75;5.75;;;;;19.78;56.78;101096.69;5090067;28;45217;-81
2022/08/28 04:43:11;;;;;;;;;7.25;7.25;;;;;19.84;56.59;101107.34;5089513;28;45081;-81
2022/08/28 04:45:39;;;;;;;;;6.00;6.00;;;;;19.74;56.59;101096.66;5090678;28;45350;-81
2022/08/28 04:48:05;;;;;;;;;6.00;6.00;;;;;19.75;57.18;101101.09;5089486;28;45318;-81
2022/08/28 04:50:30;;;;;;;;;6.00;6.00;;;;;19.79;57.14;101110.91;5089042;28;45239;-81
2022/08/28 04:52:55;;;;;;;;;7.75;7.50;;;;;19.71;56.87;101110.00;5089017;27;46127;-82
2022/08/28 04:55:21;;;;;;;;;6.00;6.00;;;;;19.65;57.22;101101.97;5070549;28;44940;-81
2022/08/28 04:57:46;;;;;;;;;7.50;7.50;;;;;19.61;57.07;101108.19;5090271;28;45071;-81
2022/08/28 05:00:12;;;;;;;;;7.25;7.25;;;;;19.76;57.26;101129.59;5088745;28;45292;-81
2022/08/28 05:02:37;;;;;;;;;9.00;7.50;;;;;19.76;57.13;101121.59;5088409;28;45260;-82
2022/08/28 05:05:03;;;;;;;;;6.33;6.33;;;;;19.71;57.03;101123.34;5090423;28;53791;-81
2022/08/28 05:07:29;;;;;;;;;9.75;7.75;;;;;19.72;57.18;101122.47;5087417;28;45678;-81
2022/08/28 05:09:54;;;;;;;;;7.50;7.25;;;;;19.74;57.00;101134.91;5089374;28;45394;-81
2022/08/28 05:12:21;;;;;;;;;8.25;8.00;;;;;19.70;56.97;101119.75;5089096;28;46376;-81
2022/08/28 05:14:47;;;;;;;;;7.75;7.50;;;;;19.59;57.26;101110.81;5090039;28;45136;-81
2022/08/28 05:17:13;;;;;;;;;7.00;7.00;;;;;19.70;57.14;101133.09;5090499;28;45989;-82
2022/08/28 05:19:38;;;;;;;;;8.00;7.25;;;;;19.68;57.54;101140.22;5087140;28;44929;-82
2022/08/28 05:22:04;;;;;;;;;6.25;6.25;;;;;19.70;57.32;101140.22;5089248;28;45034;-82
2022/08/28 05:24:29;;;;;;;;;7.00;6.75;;;;;19.66;57.46;101130.44;5090419;28;46648;-82
2022/08/28 05:26:55;;;;;;;;;6.75;6.00;;;;;19.71;57.72;101145.56;5048005;28;1119516;-81
2022/08/28 05:29:21;;;;;;;;;7.75;7.75;;;;;19.67;57.23;101140.22;5090965;28;45265;-82
2022/08/28 05:31:46;;;;;;;;;6.25;6.25;;;;;19.70;57.29;101153.53;5089755;28;45408;-82
2022/08/28 05:34:12;;;;;;;;;7.75;7.00;;;;;19.71;57.44;101156.25;5073310;28;45052;-81
2022/08/28 05:36:38;;;;;;;;;8.00;7.25;;;;;19.72;57.76;101154.47;5091705;28;45698;-81
2022/08/28 05:39:06;;;;;;;;;9.00;8.00;;;;;19.71;57.43;101158.91;5091552;28;45507;-81
2022/08/28 05:41:32;;;;;;;;;7.25;7.25;;;;;19.68;57.88;101153.53;5091078;28;45108;-82
2022/08/28 05:44:00;;;;;;;;;8.00;8.00;;;;;19.73;57.52;101158.91;5092045;28;45285;-81
2022/08/28 05:46:27;;;;;;;;;7.75;7.25;;;;;19.69;57.46;101149.09;5089584;28;46363;-82
2022/08/28 05:48:53;;;;;;;;;10.50;8.75;;;;;19.65;57.68;101147.31;5091295;28;45446;-82
2022/08/28 05:51:22;;;;;;;;;11.25;10.75;;;;;19.74;58.24;101160.69;5087748;28;45319;-83
2022/08/28 05:53:48;;;;;;;;;9.00;7.00;;;;;19.73;57.68;101158.91;5091557;28;44973;-82
2022/08/28 05:56:18;;;;;;;;;8.25;7.25;;;;;19.74;57.85;101163.34;5089996;28;45389;-82
2022/08/28 05:58:44;;;;;;;;;5.50;5.25;;;;;19.74;58.09;101155.34;5090645;28;45685;-82
2022/08/28 06:01:18;;;;;;;;;8.50;8.25;;;;;19.76;57.86;101164.25;5089682;28;45309;-82
2022/08/28 06:03:52;;;;;;;;;8.00;7.25;;;;;19.71;57.70;101148.25;5088867;28;45057;-81
2022/08/28 06:06:18;;;;;;;;;7.00;7.00;;;;;19.74;58.03;101153.56;5089682;28;45481;-81
2022/08/28 06:08:43;;;;;;;;;7.25;7.00;;;;;19.79;58.02;101161.59;5088079;28;51856;-81
2022/08/28 06:11:08;;;;;;;;;7.75;7.00;;;;;19.82;58.00;101161.59;5087375;28;45443;-82
2022/08/28 06:13:34;;;;;;;;;7.00;7.00;;;;;19.82;58.25;101157.16;5090685;28;45299;-81
2022/08/28 06:15:59;;;;;;;;;8.00;7.50;;;;;19.85;58.17;101158.94;5088376;28;46349;-81
2022/08/28 06:18:25;;;;;;;;;8.75;8.00;;;;;19.87;58.43;101159.84;5091354;28;45029;-81
2022/08/28 06:20:51;;;;;;;;;6.75;6.75;;;;;19.87;57.88;101159.84;5091323;28;45082;-82
2022/08/28 06:23:19;;;;;;;;;8.50;7.25;;;;;19.90;58.20;101165.19;5072894;28;45179;-82
2022/08/28 06:25:47;;;;;;;;;8.75;8.00;;;;;19.92;58.18;101162.53;5089688;28;45539;-82
2022/08/28 06:28:19;;;;;;;;;6.25;6.25;;;;;19.91;58.38;101166.97;5090976;28;45505;-82
2022/08/28 06:30:45;;;;;;;;;7.00;7.00;;;;;19.95;57.85;101167.84;5090061;28;44922;-82
2022/08/28 06:33:11;;;;;;;;;7.25;7.25;;;;;19.91;58.25;101161.63;5091400;28;44894;-82
2022/08/28 06:35:44;;;;;;;;;8.50;7.00;;;;;19.87;58.50;101148.28;5090795;28;46158;-82
2022/08/28 06:38:11;;;;;;;;;10.75;9.75;;;;;19.86;58.41;101139.41;5090743;28;45139;-83
2022/08/28 06:40:38;;;;;;;;;7.75;7.00;;;;;19.99;58.29;101165.19;5089006;28;45201;-82
2022/08/28 06:43:04;;;;;;;;;7.00;7.00;;;;;20.06;58.07;101168.78;5090753;28;45016;-83
2022/08/28 06:45:30;;;;;;;;;9.00;7.25;;;;;19.97;58.70;101153.66;5090291;28;45168;-82
2022/08/28 06:47:55;;;;;;;;;7.50;7.00;;;;;20.12;58.08;101173.25;5089561;28;45112;-82
2022/08/28 06:50:20;;;;;;;;;7.50;7.00;;;;;20.04;58.29;101160.75;5089432;28;45077;-82
2022/08/28 06:52:46;;;;;;;;;8.50;8.00;;;;;19.97;58.52;101134.97;5088218;28;45280;-82
2022/08/28 06:55:12;;;;;;;;;8.00;8.00;;;;;20.18;58.20;101168.81;5085070;28;44899;-83
2022/08/28 06:57:37;;;;;;;;;7.00;7.00;;;;;20.20;58.39;101164.38;5089951;28;44989;-82
2022/08/28 07:00:03;;;;;;;;;9.50;8.75;;;;;20.17;58.58;101159.03;5089789;28;45256;-83
2022/08/28 07:02:28;;;;;;;;;8.00;8.00;;;;;20.28;58.03;101164.38;5087908;28;44985;-82
2022/08/28 07:04:55;;;;;;;;;7.00;7.00;;;;;20.30;58.36;101166.19;5090612;28;46454;-82
2022/08/28 07:07:20;;;;;;;;;7.50;7.00;;;;;20.32;58.09;101168.84;5069769;28;45557;-83
2022/08/28 07:09:49;;;;;;;;;8.00;7.00;;;;;20.38;58.34;101174.19;5089172;28;45343;-82
2022/08/28 07:12:16;;;;;;;;;7.50;7.00;;;;;20.33;58.30;101160.81;5087948;28;45168;-82
2022/08/28 07:14:42;;;;;;;;;8.75;8.25;;;;;20.41;58.02;101168.84;5090556;27;45715;-82
2022/08/28 07:17:08;;;;;;;;;9.00;9.00;;;;;20.45;57.99;101170.66;5093429;28;45500;-82
2022/08/28 07:19:33;;;;;;;;;8.50;7.25;;;;;20.44;57.87;101173.28;5090008;28;45376;-83
2022/08/28 07:21:59;;;;;;;;;8.00;8.00;;;;;20.39;57.67;101165.28;5092887;28;44994;-83
2022/08/28 07:24:25;;;;;;;;;7.00;7.00;;;;;20.49;58.07;101179.56;5092822;28;45222;-81
2022/08/28 07:26:51;;;;;;;;;9.00;9.00;;;;;20.38;57.92;101152.81;5091838;28;45300;-83
2022/08/28 07:29:17;;;;;;;;;9.75;9.00;;;;;20.55;58.01;101176.91;5093736;28;44848;-84
2022/08/28 07:31:49;;;;;;;;;8.75;7.25;;;;;20.54;58.08;101170.69;5073066;28;45136;-84
2022/08/28 07:34:16;;;;;;;;;7.50;7.00;;;;;20.57;57.94;101176.00;5093236;28;45573;-83
2022/08/28 07:36:43;;;;;;;;;8.25;8.00;;;;;20.56;57.91;101168.91;5092067;28;45433;-82
2022/08/28 07:39:10;;;;;;;;;9.00;8.00;;;;;20.65;57.56;101180.47;5091305;28;45399;-83
2022/08/28 07:41:38;;;;;;;;;8.00;7.00;;;;;20.71;57.91;101188.50;5091654;28;45435;-83
2022/08/28 07:46:53;;;;;;;;;8.75;8.50;;;;;20.62;57.55;101162.66;5090891;28;45460;-83
2022/08/28 07:49:18;;;;;;;;;7.50;6.75;;;;;20.75;57.72;101180.47;5093502;28;44966;-83
2022/08/28 07:51:44;;;;;;;;;9.25;9.00;;;;;20.66;57.95;101167.13;5092710;28;45103;-81
2022/08/28 07:54:09;;;;;;;;;10.00;9.00;;;;;20.78;57.66;101180.44;5093671;28;45076;-82
2022/08/28 07:56:39;;;;;;;;;9.25;9.00;;;;;20.73;57.66;101173.34;5091140;28;45445;-82
2022/08/28 07:59:05;;;;;;;;;7.00;6.00;;;;;20.85;57.50;101192.06;5093576;28;44962;-81
2022/08/28 08:01:37;;;;;;;;;8.75;8.50;;;;;20.83;57.90;101184.00;5092718;28;45105;-82
2022/08/28 08:04:04;;;;;;;;;10.00;8.50;;;;;20.94;58.01;101200.06;5091149;28;45748;-81
2022/08/28 08:06:30;;;;;;;;;8.25;7.50;;;;;20.99;57.69;101194.72;5091973;28;45497;-82
2022/08/28 08:08:55;;;;;;;;;8.25;8.00;;;;;20.99;57.67;101184.91;5093117;28;45223;-83
2022/08/28 08:11:21;;;;;;;;;10.50;9.25;;;;;20.96;57.39;101179.56;5090823;28;45152;-81
2022/08/28 08:13:47;;;;;;;;;9.25;8.00;;;;;21.06;57.49;101196.47;5093039;28;45234;-83
2022/08/28 08:16:18;;;;;;;;;9.25;8.50;;;;;21.12;57.45;101191.13;5089902;28;45279;-82
2022/08/28 08:18:43;;;;;;;;;11.75;10.75;;;;;21.14;57.35;101194.69;5091640;28;45289;-82
2022/08/28 08:21:11;;;;;;;;;12.25;12.25;;;;;21.09;57.65;101178.66;5090929;28;45101;-81
2022/08/28 08:23:38;;;;;;;;;11.75;11.00;;;;;21.05;57.15;101168.88;5091286;28;46324;-82
2022/08/28 08:26:13;;;;;;;;;9.75;7.50;;;;;21.22;57.35;101192.00;5090087;27;45549;-83
2022/08/28 08:28:39;;;;;;;;;11.00;8.75;;;;;21.24;57.32;101199.13;5091966;28;44878;-82
2022/08/28 08:31:15;;;;;;;;;10.00;9.00;;;;;21.02;57.28;101158.16;5074005;28;45081;-83
2022/08/28 08:33:44;;;;;;;;;12.50;12.50;;;;;21.30;57.20;101198.22;5091785;28;45516;-82
2022/08/28 08:36:14;;;;;;;;;11.00;10.25;;;;;21.12;57.27;101167.94;5090776;28;45633;-83
2022/08/28 08:38:40;;;;;;;;;15.00;14.25;;;;;21.35;57.42;101199.13;5090820;28;45141;-82
2022/08/28 08:41:24;;;;;;;;;12.25;12.25;;;;;21.38;57.34;101201.81;5089970;28;45435;-82
2022/08/28 08:44:06;;;;;;;;;9.50;9.25;;;;;21.31;57.34;101184.00;5091186;28;48378;-82
2022/08/28 08:47:10;;;;;;;;;11.50;10.25;;;;;21.42;57.41;101192.88;5090738;28;45504;-82
2022/08/28 08:49:39;;;;;;;;;10.25;9.50;;;;;21.48;57.19;101190.19;5088775;28;45083;-82
2022/08/28 08:52:10;;;;;;;;;10.00;10.00;;;;;21.56;57.21;101207.09;5091170;28;45317;-82
2022/08/28 08:54:40;;;;;;;;;13.75;12.00;;;;;21.60;56.69;101191.94;5091613;28;45546;-82
2022/08/28 08:57:09;;;;;;;;;12.25;11.25;;;;;21.65;56.85;101195.47;5090709;28;45159;-83
2022/08/28 08:59:37;;;;;;;;;12.25;12.25;;;;;21.63;57.24;101195.50;5087096;28;45418;-84
2022/08/28 09:02:13;;;;;;;;;13.00;12.25;;;;;21.71;57.32;101186.53;5090916;28;45226;-82
2022/08/28 09:05:03;;;;;;;;;11.00;10.00;;;;;21.77;56.79;101191.84;5091049;28;45302;-82
2022/08/28 09:07:55;;;;;;;;;14.50;12.75;;;;;21.79;57.12;101184.72;5089327;28;45508;-83
2022/08/28 09:10:23;;;;;;;;;12.25;11.75;;;;;21.80;56.40;101186.50;5090205;28;45444;-83
2022/08/28 09:13:16;;;;;;;;;15.50;13.75;;;;;21.87;56.36;101193.59;5091349;28;45155;-83
2022/08/28 09:15:45;;;;;;;;;13.75;12.50;;;;;21.71;56.19;101163.34;5091929;28;45768;-83
2022/08/28 09:18:33;;;;;;;;;12.00;12.00;;;;;21.80;56.50;101174.00;5091970;28;45509;-82
2022/08/28 09:20:58;;;;;;;;;14.50;14.00;;;;;21.84;56.39;101172.22;5092187;28;44874;-82
2022/08/28 09:23:27;;;;;;;;;14.00;13.50;;;;;21.98;56.42;101193.56;5092612;28;45090;-82
2022/08/28 09:25:55;;;;;;;;;13.25;12.25;;;;;22.03;56.14;101194.44;5089940;28;45542;-82
2022/08/28 09:28:34;;;;;;;;;15.00;12.25;;;;;22.07;56.00;101186.38;5091843;28;45486;-82
2022/08/28 09:31:02;;;;;;;;;12.50;11.50;;;;;22.11;56.02;101196.16;5089758;28;45282;-83
2022/08/28 09:33:40;;;;;;;;;12.25;11.50;;;;;22.15;56.06;101197.06;5092388;28;45004;-81
2022/08/28 09:36:21;;;;;;;;;16.00;15.00;;;;;22.21;55.80;101186.28;5090690;28;45196;-83
2022/08/28 09:39:22;;;;;;;;;13.50;12.75;;;;;22.25;55.65;101192.53;5091130;27;45197;-83
2022/08/28 09:44:48;;;;;;;;;15.50;14.75;;;;;22.34;55.63;101192.47;5091582;28;45008;-83
2022/08/28 09:47:56;;;;;;;;;15.00;14.75;;;;;22.43;55.51;101180.81;5091590;28;45198;-83
2022/08/28 09:50:32;;;;;;;;;12.00;11.25;;;;;22.29;55.68;101155.00;5046696;28;45275;-83
2022/08/28 09:53:10;;;;;;;;;15.75;14.00;;;;;22.51;55.51;101177.19;5049153;28;45013;-83
2022/08/28 09:56:01;;;;;;;;;14.50;13.75;;;;;22.56;55.47;101180.72;5072706;28;44934;-82
2022/08/28 09:58:35;;;;;;;;;15.50;15.25;;;;;22.60;55.02;101174.41;5087825;28;45284;-82
2022/08/28 10:01:23;;;;;;;;;15.00;13.00;;;;;22.70;55.15;101179.69;5089339;28;45076;-82
2022/08/28 10:04:19;;;;;;;;;14.75;14.25;;;;;22.75;55.44;101181.44;5090728;28;45013;-84
2022/08/28 10:06:56;;;;;;;;;16.00;15.25;;;;;22.83;55.02;101176.91;5090093;28;45012;-82
2022/08/28 10:09:40;;;;;;;;;15.50;15.50;;;;;22.88;54.76;101180.47;5091407;28;46123;-82
2022/08/28 10:12:31;;;;;;;;;14.00;13.75;;;;;22.91;54.94;101169.72;5089937;28;46392;-83
2022/08/28 10:15:24;;;;;;;;;16.25;14.25;;;;;23.00;54.61;101167.84;5071689;28;45239;-83
2022/08/28 10:18:24;;;;;;;;;13.00;13.00;;;;;23.06;54.36;101174.06;5073117;28;45041;-84
2022/08/28 10:21:07;;;;;;;;;13.50;13.50;;;;;23.01;54.15;101157.13;5071724;28;47012;-83
2022/08/28 10:24:00;;;;;;;;;15.50;14.50;;;;;23.02;54.56;101142.81;5090919;28;45690;-83
2022/08/28 10:26:54;;;;;;;;;16.00;14.00;;;;;23.26;53.81;101171.16;5088644;28;45006;-83
2022/08/28 10:29:48;;;;;;;;;13.25;11.50;;;;;23.13;53.98;101130.16;5091323;28;45117;-82
2022/08/28 10:32:38;;;;;;;;;15.00;15.00;;;;;23.37;53.79;101163.88;5072338;28;46926;-83
2022/08/28 10:35:14;;;;;;;;;14.50;13.50;;;;;23.46;53.18;101165.56;5089783;28;46110;-83
2022/08/28 10:38:22;;;;;;;;;14.75;13.75;;;;;23.52;53.22;101162.81;5091198;28;45077;-84
2022/08/28 10:41:04;;;;;;;;;15.25;13.75;;;;;23.48;53.19;101152.13;5070943;28;45254;-83
2022/08/28 10:43:49;;;;;;;;;18.50;17.50;;;;;23.61;52.74;101169.88;5090874;28;45253;-83
2022/08/28 10:46:23;;;;;;;;;17.00;14.00;;;;;23.67;52.63;101169.81;5090863;28;45475;-82
2022/08/28 10:48:54;;;;;;;;;17.00;15.75;;;;;23.76;52.62;101166.13;5091318;27;45050;-82
2022/08/28 10:51:34;;;;;;;;;12.25;11.50;;;;;23.83;52.54;101160.66;5092392;28;45371;-83
2022/08/28 10:54:13;;;;;;;;;15.75;13.75;;;;;24.01;52.35;101169.38;5094074;28;45221;-83
2022/08/28 10:56:45;;;;;;;;;10.00;10.00;;;;;24.03;51.99;101157.69;5077292;28;45242;-83
2022/08/28 10:59:11;;;;;;;;;12.75;12.00;;;;;24.05;51.75;101163.94;5093799;28;44982;-84
2022/08/28 11:01:40;;;;;;;;;12.00;11.75;;;;;24.18;51.83;101168.19;5093821;28;44949;-83
2022/08/28 11:04:17;;;;;;;;;11.75;11.00;;;;;24.24;51.60;101166.38;5094498;28;46015;-84
2022/08/28 11:06:49;;;;;;;;;12.75;12.00;;;;;24.18;51.91;101143.16;5092661;28;45440;-84
2022/08/28 11:09:28;;;;;;;;;14.00;11.50;;;;;24.31;51.40;101152.81;5093791;28;45309;-83
2022/08/28 11:12:01;;;;;;;;;12.75;12.50;;;;;24.40;51.76;101155.38;5092236;28;45346;-84
2022/08/28 11:14:32;;;;;;;;;12.25;11.75;;;;;24.47;51.40;101158.84;5094791;28;45677;-83
2022/08/28 11:17:10;;;;;;;;;10.75;10.75;;;;;24.54;50.91;101156.97;5075868;28;45418;-83
2022/08/28 11:20:00;;;;;;;;;12.50;11.50;;;;;24.61;51.20;101154.13;5094303;28;45211;-83
2022/08/28 11:22:37;;;;;;;;;10.50;10.50;;;;;24.66;50.72;101165.69;5094116;28;45020;-84
2022/08/28 11:25:12;;;;;;;;;11.25;9.75;;;;;24.68;50.71;101160.31;5092710;28;45487;-83
2022/08/28 11:27:39;;;;;;;;;17.00;15.00;;;;;24.74;50.52;101127.94;5092799;28;45558;-83
2022/08/28 11:30:24;;;;;;;;;15.00;13.25;;;;;24.84;50.62;101147.50;5094055;28;44939;-82
2022/08/28 11:32:49;;;;;;;;;17.00;16.50;;;;;24.98;49.98;101155.31;5093794;28;45255;-83
2022/08/28 11:35:40;;;;;;;;;11.25;11.00;;;;;25.25;49.79;101153.94;5093649;28;45087;-84
2022/08/28 11:38:06;;;;;;;;;12.25;11.50;;;;;25.38;49.44;101145.59;5093830;28;45576;-82
2022/08/28 11:40:31;;;;;;;;;10.75;9.50;;;;;25.67;49.21;101157.56;5092237;28;45072;-82